Oak, Nebraska
Current Conditions -  °F | °C
As of 9:35 AM on Sunday 21 Dec 2014 (Local Time) from KHJH Reporting Station
Haze Haze  
Wind Chill: 31°   Ceiling: 300
Heat Index: 37°   Visibility: 1.2mi
Dew Point: 36°   Wind: 9mph
Humidity: 94%   Direction: 210°SSW
Pressure: 29.86"   Gusts: 17mph
Location:  40.24°N, 97.9°W
Report Text: KHJH 211535Z AUTO 21008G15KT 1 1/4SM BR OVC003 03/02 A2986 RMK AO2 T00300021
Loading
Personal Weather Stations






























Interactive Weather Map New forecast layout! Learn more

10-Day Weather Forecast

Advertisements
Track Severe Weather on mobile